Time;durP1;ratioP1;P1;durP2;ratioP2;P2;SDS_P1;SDS_P2;PMS_P1;PMS_P2;Temp;Humidity;BMP_temperature;BMP_pressure;BME280_temperature;BME280_humidity;BME280_pressure;Samples;Min_cycle;Max_cycle;Signal;HPM_P1;HPM_P2
2023/12/25 00:01:34;;;;;;;3.92;1.40;;;11.20;99.90;;;11.05;100.00;99467.63;5071925;28;20041;-83
2023/12/25 00:04:02;;;;;;;4.50;1.52;;;11.30;99.90;;;11.06;100.00;99450.56;5073910;28;20080;-83
2023/12/25 00:06:29;;;;;;;3.92;1.50;;;11.30;99.90;;;11.02;100.00;99465.44;5071419;28;20125;-83
2023/12/25 00:08:57;;;;;;;3.92;1.23;;;11.20;99.90;;;11.05;100.00;99456.97;5075445;28;20045;-83
2023/12/25 00:11:25;;;;;;;6.47;1.50;;;11.30;99.90;;;11.08;100.00;99456.50;5075528;28;20408;-84
2023/12/25 00:13:55;;;;;;;4.53;1.63;;;11.30;99.90;;;11.01;100.00;99459.28;5075194;28;20462;-83
2023/12/25 00:16:26;;;;;;;5.15;1.30;;;11.30;99.90;;;11.05;100.00;99440.94;5074724;28;20101;-83
2023/12/25 00:18:55;;;;;;;4.97;1.60;;;11.30;99.90;;;11.03;100.00;99457.22;5109411;28;20056;-83
2023/12/25 00:21:23;;;;;;;2.15;1.20;;;11.30;99.90;;;11.09;100.00;99460.78;5075579;28;20041;-83
2023/12/25 00:23:50;;;;;;;5.78;1.40;;;11.30;99.90;;;11.11;100.00;99457.84;5058747;28;20041;-83
2023/12/25 00:26:18;;;;;;;3.40;1.50;;;11.30;99.90;;;11.13;100.00;99466.44;5025413;28;20506;-83
2023/12/25 00:28:46;;;;;;;4.28;1.40;;;11.30;99.90;;;11.10;100.00;99462.38;5058841;28;20047;-83
2023/12/25 00:31:16;;;;;;;6.15;1.50;;;11.30;99.90;;;11.03;100.00;99461.72;5074976;28;20095;-83
2023/12/25 00:33:47;;;;;;;5.13;1.70;;;11.30;99.90;;;11.11;100.00;99456.00;5074947;28;20040;-83
2023/12/25 00:36:14;;;;;;;4.18;1.70;;;11.30;99.90;;;11.14;100.00;99454.72;5074581;28;20055;-83
2023/12/25 00:38:44;;;;;;;3.60;1.40;;;11.30;99.90;;;11.13;100.00;99464.59;5076081;28;20044;-83
2023/12/25 00:41:11;;;;;;;3.47;1.60;;;11.30;99.90;;;11.14;100.00;99466.19;5075272;28;20052;-83
2023/12/25 00:43:39;;;;;;;4.05;1.70;;;11.30;99.90;;;11.06;100.00;99470.06;5057843;28;20041;-83
2023/12/25 00:46:07;;;;;;;4.60;1.80;;;11.40;99.90;;;11.09;100.00;99472.25;5090453;28;20048;-84
2023/12/25 00:48:36;;;;;;;5.75;1.63;;;11.30;99.90;;;11.12;100.00;99462.94;5073988;28;20044;-83
2023/12/25 00:51:03;;;;;;;5.93;2.00;;;11.40;99.90;;;11.09;100.00;99466.09;5058011;28;20538;-83
2023/12/25 00:53:31;;;;;;;4.28;1.90;;;11.30;99.90;;;11.12;100.00;99470.13;5074146;28;20045;-83
2023/12/25 00:55:58;;;;;;;5.88;2.03;;;11.30;99.90;;;11.15;100.00;99475.81;5057188;28;20102;-83
2023/12/25 00:58:26;;;;;;;5.60;1.88;;;11.40;99.90;;;11.15;100.00;99464.34;5073486;28;20047;-83
2023/12/25 01:00:54;;;;;;;6.05;2.08;;;11.40;99.90;;;11.10;100.00;99454.38;5056786;28;20511;-83
2023/12/25 01:03:22;;;;;;;5.22;2.10;;;11.40;99.90;;;11.11;100.00;99452.50;5056719;28;20048;-83
2023/12/25 01:05:51;;;;;;;6.63;2.00;;;11.40;99.90;;;11.14;100.00;99450.19;5040299;28;20083;-83
2023/12/25 01:08:19;;;;;;;5.43;2.05;;;11.40;99.90;;;11.15;100.00;99453.66;5073168;28;20494;-84
2023/12/25 01:10:47;;;;;;;4.38;1.80;;;11.40;99.90;;;11.11;100.00;99447.97;5072633;28;20044;-83
2023/12/25 01:13:16;;;;;;;3.92;2.20;;;11.30;99.90;;;11.14;100.00;99450.19;5072765;28;20097;-83
2023/12/25 01:15:46;;;;;;;13.23;2.10;;;11.40;99.90;;;11.10;100.00;99451.72;5073909;28;20086;-84
2023/12/25 01:18:13;;;;;;;5.68;2.15;;;11.40;99.90;;;11.10;100.00;99473.06;5072797;28;20499;-83
2023/12/25 01:20:43;;;;;;;5.30;1.92;;;11.40;99.90;;;11.11;100.00;99473.88;5089225;28;20096;-83
2023/12/25 01:23:12;;;;;;;5.88;1.90;;;11.40;99.90;;;11.11;100.00;99464.00;5073694;28;20451;-83
2023/12/25 01:25:40;;;;;;;8.52;2.47;;;11.40;99.90;;;11.09;100.00;99477.59;5072678;28;20567;-83
2023/12/25 01:28:08;;;;;;;5.43;2.00;;;11.40;99.90;;;11.13;100.00;99467.25;5072628;28;20094;-83
2023/12/25 01:30:35;;;;;;;7.38;2.22;;;11.40;99.90;;;11.11;100.00;99464.00;5073806;28;20094;-83
2023/12/25 01:33:03;;;;;;;6.85;1.98;;;11.40;99.90;;;11.10;100.00;99483.72;5073887;28;20040;-83
2023/12/25 01:35:30;;;;;;;6.47;2.15;;;11.40;99.90;;;11.15;100.00;99480.34;5072258;28;20131;-83
2023/12/25 01:37:58;;;;;;;4.60;1.83;;;11.40;99.90;;;11.18;100.00;99487.88;5073409;28;20093;-83
2023/12/25 01:40:27;;;;;;;3.78;2.08;;;11.40;99.90;;;11.13;100.00;99493.13;5073940;28;20032;-83
2023/12/25 01:42:56;;;;;;;4.18;1.98;;;11.40;99.90;;;11.14;100.00;99497.41;5089225;28;20044;-83
2023/12/25 01:45:24;;;;;;;5.82;2.10;;;11.40;99.90;;;11.17;100.00;99473.72;5071902;28;20044;-83
2023/12/25 01:47:51;;;;;;;5.65;2.30;;;11.40;99.90;;;11.13;100.00;99495.81;5055673;28;20569;-83
2023/12/25 01:50:19;;;;;;;7.07;2.30;;;11.40;99.90;;;11.15;100.00;99501.69;5071960;28;20049;-83
2023/12/25 01:52:49;;;;;;;5.25;2.08;;;11.40;99.90;;;11.16;100.00;99509.47;5071829;28;20056;-83
2023/12/25 01:55:16;;;;;;;5.28;2.03;;;11.40;99.90;;;11.17;100.00;99527.09;5072108;28;20044;-83
2023/12/25 01:57:45;;;;;;;4.80;2.10;;;11.40;99.90;;;11.19;100.00;99533.00;5074634;28;20098;-83
2023/12/25 02:00:14;;;;;;;4.15;1.70;;;11.40;99.90;;;11.20;100.00;99520.47;5059558;28;20094;-83
2023/12/25 02:02:43;;;;;;;3.88;1.73;;;11.40;99.90;;;11.16;100.00;99527.31;5077189;28;20131;-83
2023/12/25 02:05:11;;;;;;;3.55;1.70;;;11.40;99.90;;;11.14;100.00;99524.09;5039896;28;20463;-83
2023/12/25 02:07:40;;;;;;;3.42;1.63;;;11.40;99.90;;;11.13;100.00;99533.97;5072667;28;20139;-84
2023/12/25 02:10:10;;;;;;;3.33;1.55;;;11.40;99.90;;;11.16;100.00;99530.81;5055965;28;20562;-84
2023/12/25 02:12:38;;;;;;;3.53;1.75;;;11.40;99.90;;;11.17;100.00;99521.75;5039502;28;20464;-84
2023/12/25 02:15:10;;;;;;;3.08;1.40;;;11.40;99.90;;;11.16;100.00;99504.13;5062492;28;20040;-83
2023/12/25 02:17:37;;;;;;;4.47;1.75;;;11.40;99.90;;;11.12;100.00;99512.84;5075731;28;20049;-84
2023/12/25 02:20:07;;;;;;;3.53;1.50;;;11.40;99.90;;;11.15;100.00;99517.72;5059261;28;20120;-83
2023/12/25 02:22:35;;;;;;;3.15;1.48;;;11.40;99.90;;;11.18;100.00;99512.72;5059470;28;20048;-84
2023/12/25 02:25:08;;;;;;;4.32;1.33;;;11.40;99.90;;;11.20;100.00;99510.59;5076978;28;20119;-84
2023/12/25 02:27:37;;;;;;;2.83;1.33;;;11.40;99.90;;;11.16;100.00;99505.97;5076115;28;20045;-83
2023/12/25 02:30:07;;;;;;;2.80;1.60;;;11.40;99.90;;;11.14;100.00;99511.56;5077473;28;20048;-83
2023/12/25 02:32:34;;;;;;;4.38;1.70;;;11.40;99.90;;;11.09;100.00;99506.13;5076955;28;20063;-84
2023/12/25 02:35:02;;;;;;;3.88;1.50;;;11.40;99.90;;;11.09;100.00;99490.13;5059602;28;20059;-83
2023/12/25 02:37:30;;;;;;;3.53;1.92;;;11.40;99.90;;;11.08;100.00;99512.53;5075962;28;20052;-83
2023/12/25 02:39:58;;;;;;;5.00;1.90;;;11.40;99.90;;;11.10;100.00;99515.75;5075810;28;20041;-83
2023/12/25 02:42:25;;;;;;;5.00;1.67;;;11.40;99.90;;;11.13;100.00;99523.28;5077120;28;20419;-83
2023/12/25 02:44:54;;;;;;;4.60;2.22;;;11.40;99.90;;;11.18;100.00;99533.25;5075888;28;20082;-83
2023/12/25 02:47:23;;;;;;;4.78;1.60;;;11.40;99.90;;;11.19;100.00;99534.88;5076160;28;20053;-83
2023/12/25 02:49:51;;;;;;;3.10;1.40;;;11.40;99.90;;;11.18;100.00;99527.91;5076928;28;20075;-83
2023/12/25 02:52:18;;;;;;;3.72;1.58;;;11.40;99.90;;;11.16;100.00;99524.66;5075414;28;20040;-84
2023/12/25 02:54:46;;;;;;;4.13;1.60;;;11.40;99.90;;;11.15;100.00;99520.38;5058695;28;20123;-83
2023/12/25 02:57:15;;;;;;;4.90;1.55;;;11.40;99.90;;;11.17;100.00;99516.41;5076803;28;20176;-83
2023/12/25 02:59:42;;;;;;;2.70;1.42;;;11.40;99.90;;;11.15;100.00;99523.03;5075081;28;20470;-83
2023/12/25 03:02:11;;;;;;;2.45;1.20;;;11.40;99.90;;;11.19;100.00;99530.34;5058923;28;20139;-83
2023/12/25 03:04:39;;;;;;;3.53;1.50;;;11.40;99.90;;;11.18;100.00;99523.38;5091999;28;20090;-84
2023/12/25 03:07:07;;;;;;;3.88;1.60;;;11.40;99.90;;;11.19;100.00;99526.88;5076744;28;20047;-83
2023/12/25 03:09:35;;;;;;;4.45;1.80;;;11.50;99.90;;;11.17;100.00;99527.09;5074781;28;20048;-83
2023/12/25 03:12:05;;;;;;;4.20;1.70;;;11.50;99.90;;;11.21;100.00;99533.56;5076629;28;20101;-84
2023/12/25 03:14:33;;;;;;;5.40;2.07;;;11.40;99.90;;;11.19;100.00;99529.53;5074928;28;20408;-84
2023/12/25 03:17:00;;;;;;;4.57;1.85;;;11.50;99.90;;;11.19;100.00;99541.00;5058568;28;20131;-84
2023/12/25 03:19:29;;;;;;;4.07;1.90;;;11.50;99.90;;;11.19;100.00;99541.00;5075147;28;20075;-83
2023/12/25 03:21:58;;;;;;;4.93;1.70;;;11.50;99.90;;;11.22;100.00;99535.19;5074729;28;20098;-83
2023/12/25 03:24:25;;;;;;;5.90;1.60;;;11.40;99.90;;;11.25;100.00;99545.41;5074742;28;20052;-84
2023/12/25 03:26:53;;;;;;;3.25;1.88;;;11.50;99.90;;;11.24;100.00;99546.44;5057923;28;20047;-83
2023/12/25 03:29:20;;;;;;;5.80;2.30;;;11.50;99.90;;;11.22;100.00;99540.53;5076122;28;20044;-83
2023/12/25 03:31:48;;;;;;;3.95;1.95;;;11.40;99.90;;;11.19;100.00;99537.53;5075447;28;20384;-83
2023/12/25 03:34:18;;;;;;;4.10;1.90;;;11.40;99.90;;;11.19;100.00;99530.34;5074367;28;20529;-83
2023/12/25 03:36:47;;;;;;;4.15;1.67;;;11.40;99.90;;;11.20;100.00;99541.81;5075641;28;20470;-83
2023/12/25 03:39:14;;;;;;;4.63;1.70;;;11.50;99.90;;;11.24;100.00;99529.63;5058031;28;20079;-83
2023/12/25 03:41:42;;;;;;;4.45;1.73;;;11.50;99.90;;;11.23;100.00;99526.16;5074642;28;20099;-83
2023/12/25 03:44:10;;;;;;;4.00;1.55;;;11.50;99.90;;;11.26;100.00;99525.66;5075737;28;20041;-84
2023/12/25 03:46:37;;;;;;;2.78;1.50;;;11.50;99.90;;;11.26;100.00;99519.50;5074088;28;20056;-83
2023/12/25 03:49:05;;;;;;;3.28;1.58;;;11.50;99.90;;;11.29;100.00;99527.06;5076137;28;20040;-83
2023/12/25 03:51:36;;;;;;;2.58;1.30;;;11.50;99.90;;;11.25;100.00;99518.69;5074756;28;20508;-83
2023/12/25 03:54:07;;;;;;;3.50;1.40;;;11.50;99.90;;;11.27;100.00;99521.97;5074799;28;20044;-83
2023/12/25 03:56:35;;;;;;;3.22;1.52;;;11.50;99.90;;;11.27;100.00;99529.13;5058339;28;20102;-83
2023/12/25 03:59:04;;;;;;;3.30;1.60;;;11.50;99.90;;;11.26;100.00;99532.84;5058375;28;20475;-83
2023/12/25 04:01:32;;;;;;;2.92;1.40;;;11.50;99.90;;;11.19;100.00;99541.00;5074157;28;20143;-83
2023/12/25 04:03:59;;;;;;;5.78;1.70;;;11.50;99.90;;;11.22;100.00;99550.38;5074808;28;20040;-83
2023/12/25 04:06:28;;;;;;;3.15;1.38;;;11.50;99.90;;;11.20;100.00;99542.63;5075524;28;20040;-83
2023/12/25 04:08:58;;;;;;;3.95;1.30;;;11.50;99.90;;;11.23;100.00;99562.72;5074432;28;20044;-85
2023/12/25 04:11:27;;;;;;;3.38;1.48;;;11.50;99.90;;;11.20;100.00;99558.66;5074451;28;20423;-83
2023/12/25 04:13:59;;;;;;;4.30;1.40;;;11.50;99.90;;;11.21;100.00;99572.78;5024398;28;20048;-83
2023/12/25 04:16:28;;;;;;;5.10;2.03;;;11.50;99.90;;;11.24;100.00;99569.66;5058936;28;20036;-83
2023/12/25 04:18:58;;;;;;;4.03;1.70;;;11.50;99.90;;;11.28;100.00;99558.28;5073976;28;20056;-83
2023/12/25 04:21:27;;;;;;;3.60;1.40;;;11.50;99.90;;;11.28;100.00;99555.59;5073621;28;20044;-83
2023/12/25 04:23:56;;;;;;;3.30;1.70;;;11.50;99.90;;;11.25;100.00;99574.75;5073394;28;20059;-83
2023/12/25 04:26:25;;;;;;;3.78;1.80;;;11.50;99.90;;;11.26;100.00;99578.22;5057183;28;20476;-83
2023/12/25 04:28:54;;;;;;;3.72;1.85;;;11.50;99.90;;;11.26;100.00;99570.22;5073773;28;20048;-84
2023/12/25 04:31:31;;;;;;;2.97;1.58;;;11.50;99.90;;;11.26;100.00;99563.03;5056971;28;20071;-84
2023/12/25 04:33:59;;;;;;;3.20;1.42;;;11.50;99.90;;;11.32;100.00;99561.25;5073548;28;20149;-84
2023/12/25 04:36:26;;;;;;;5.38;1.52;;;11.50;99.90;;;11.32;100.00;99556.75;5073240;28;20047;-84
2023/12/25 04:38:54;;;;;;;4.50;1.48;;;11.50;99.90;;;11.32;100.00;99567.44;5073139;28;20145;-84
2023/12/25 04:41:22;;;;;;;5.75;1.85;;;11.50;99.90;;;11.32;100.00;99561.25;5074316;28;20045;-84
2023/12/25 04:43:51;;;;;;;3.15;1.30;;;11.50;99.90;;;11.32;100.00;99555.91;5073066;28;20051;-84
2023/12/25 04:46:20;;;;;;;3.22;1.80;;;11.50;99.90;;;11.28;100.00;99552.94;5073548;28;20044;-84
2023/12/25 04:48:48;;;;;;;5.82;1.80;;;11.50;99.90;;;11.31;100.00;99544.44;5073638;28;20044;-84
2023/12/25 04:51:16;;;;;;;2.72;1.40;;;11.60;99.90;;;11.30;100.00;99545.50;5073424;28;20579;-84
2023/12/25 04:53:43;;;;;;;4.65;1.70;;;11.50;99.90;;;11.29;100.00;99546.53;5074585;28;20045;-84
2023/12/25 04:56:12;;;;;;;4.68;2.00;;;11.50;99.90;;;11.31;100.00;99562.31;5073116;28;20568;-84
2023/12/25 04:58:39;;;;;;;4.10;1.73;;;11.50;99.90;;;11.34;100.00;99556.50;5074288;28;20040;-84
2023/12/25 05:01:07;;;;;;;4.35;1.40;;;11.50;99.90;;;11.29;100.00;99551.88;5073106;28;20041;-84
2023/12/25 05:03:37;;;;;;;3.75;1.30;;;11.60;99.90;;;11.33;100.00;99550.34;5073076;28;20072;-84
2023/12/25 05:06:05;;;;;;;2.83;1.23;;;11.60;99.90;;;11.27;100.00;99548.66;5074273;28;20062;-84
2023/12/25 05:08:32;;;;;;;2.88;1.38;;;11.60;99.90;;;11.32;100.00;99545.25;5073172;28;20049;-84
2023/12/25 05:10:59;;;;;;;3.90;1.50;;;11.60;99.90;;;11.31;100.00;99548.97;5072972;28;20048;-84
2023/12/25 05:13:27;;;;;;;4.18;1.70;;;11.50;99.90;;;11.28;100.00;99544.94;5073087;28;20512;-84
2023/12/25 05:15:55;;;;;;;4.22;1.58;;;11.50;99.90;;;11.27;100.00;99526.47;5072755;28;20074;-84
2023/12/25 05:18:23;;;;;;;2.83;1.38;;;11.60;99.90;;;11.32;100.00;99534.56;5074416;28;20048;-84
2023/12/25 05:20:55;;;;;;;4.03;1.38;;;11.60;99.90;;;11.31;100.00;99531.09;5072739;28;20079;-84
2023/12/25 05:23:27;;;;;;;3.05;1.30;;;11.50;99.90;;;11.32;100.00;99543.41;5073350;28;20114;-84
2023/12/25 05:25:54;;;;;;;3.35;1.38;;;11.50;99.90;;;11.31;100.00;99543.63;5054099;28;20107;-84
2023/12/25 05:28:22;;;;;;;2.80;1.13;;;11.50;99.90;;;11.26;100.00;99541.66;5036398;28;20037;-84
2023/12/25 05:30:50;;;;;;;2.45;1.15;;;11.50;99.90;;;11.27;100.00;99540.66;5053634;28;20106;-84
2023/12/25 05:33:19;;;;;;;3.00;1.10;;;11.50;99.90;;;11.28;100.00;99531.59;5053714;28;20573;-84
2023/12/25 05:35:49;;;;;;;2.65;0.90;;;11.50;99.90;;;11.31;100.00;99539.09;5058667;28;20056;-84
2023/12/25 05:38:17;;;;;;;2.67;0.90;;;11.50;99.90;;;11.32;100.00;99539.91;5072752;28;20410;-84
2023/12/25 05:40:45;;;;;;;1.90;0.90;;;11.50;99.90;;;11.28;100.00;99544.94;5072528;28;20060;-84
2023/12/25 05:43:13;;;;;;;2.15;0.77;;;11.50;99.90;;;11.29;99.80;99541.19;5072664;28;20052;-84
2023/12/25 05:45:40;;;;;;;3.83;0.82;;;11.50;99.90;;;11.31;99.80;99541.75;5073679;28;20513;-84
2023/12/25 05:48:08;;;;;;;2.47;0.80;;;11.50;99.90;;;11.29;99.93;99559.88;5073407;28;20048;-84
2023/12/25 05:50:36;;;;;;;2.03;0.70;;;11.50;99.90;;;11.30;99.95;99553.50;5072247;28;20037;-84
2023/12/25 05:53:04;;;;;;;2.25;0.70;;;11.50;99.90;;;11.26;99.25;99554.22;5072409;28;20048;-84
2023/12/25 05:55:32;;;;;;;1.58;0.70;;;11.50;99.90;;;11.26;99.47;99547.00;5072319;28;20048;-84
2023/12/25 05:58:00;;;;;;;1.60;0.65;;;11.50;99.90;;;11.29;99.49;99556.41;5072515;28;20136;-84
2023/12/25 06:00:27;;;;;;;6.47;0.70;;;11.50;99.90;;;11.26;99.42;99551.53;5055270;28;20079;-84
2023/12/25 06:02:54;;;;;;;1.88;0.90;;;11.50;99.90;;;11.26;99.50;99562.22;5055410;28;20044;-84
2023/12/25 06:05:22;;;;;;;1.58;0.70;;;11.50;99.90;;;11.24;99.39;99549.13;5072666;28;20040;-84
2023/12/25 06:07:50;;;;;;;1.38;0.70;;;11.40;99.90;;;11.23;99.46;99547.50;5073387;28;20408;-84
2023/12/25 06:10:17;;;;;;;2.45;0.60;;;11.50;99.90;;;11.24;99.38;99549.13;5072976;28;20507;-84
2023/12/25 06:12:46;;;;;;;3.72;0.63;;;11.50;99.90;;;11.24;98.97;99543.78;5072561;28;20045;-84
2023/12/25 06:15:13;;;;;;;1.33;0.52;;;11.50;99.90;;;11.21;98.77;99554.91;5073662;28;20136;-84
2023/12/25 06:17:41;;;;;;;2.58;0.60;;;11.50;99.90;;;11.22;98.97;99561.06;5073679;28;20037;-84
2023/12/25 06:20:10;;;;;;;1.08;0.50;;;11.50;99.90;;;11.20;98.95;99549.81;5074444;28;20048;-84
2023/12/25 06:22:37;;;;;;;1.48;0.63;;;11.40;99.90;;;11.20;98.85;99542.63;5072779;28;20049;-84
2023/12/25 06:25:06;;;;;;;2.90;0.80;;;11.50;99.90;;;11.24;99.01;99543.78;5073911;28;20040;-84
2023/12/25 06:27:33;;;;;;;1.90;0.70;;;11.50;99.90;;;11.23;98.45;99541.34;5073858;28;20044;-84
2023/12/25 06:30:03;;;;;;;2.35;1.10;;;11.50;99.90;;;11.19;98.71;99545.53;5074439;28;20127;-84
2023/12/25 06:32:32;;;;;;;2.10;0.70;;;11.50;99.90;;;11.20;98.43;99553.31;5074282;28;20051;-84
2023/12/25 06:34:59;;;;;;;2.88;0.98;;;11.50;99.90;;;11.24;98.47;99538.44;5056146;28;20475;-84
2023/12/25 06:37:26;;;;;;;2.83;0.90;;;11.50;99.90;;;11.22;98.44;99545.06;5072653;28;20043;-84
2023/12/25 06:39:54;;;;;;;3.63;0.77;;;11.40;99.90;;;11.23;98.05;99549.38;5074242;28;20056;-84
2023/12/25 06:42:22;;;;;;;2.63;0.80;;;11.40;99.90;;;11.22;98.32;99561.88;5072635;28;20077;-84
2023/12/25 06:44:49;;;;;;;2.53;1.00;;;11.40;99.90;;;11.13;98.45;99522.47;5093161;28;20044;-84
2023/12/25 06:47:19;;;;;;;2.25;0.93;;;11.40;99.90;;;11.18;98.59;99536.72;5077844;28;20094;-84
2023/12/25 06:49:46;;;;;;;2.15;0.90;;;11.40;99.90;;;11.22;98.75;99543.19;5059857;28;20068;-84
2023/12/25 06:52:14;;;;;;;3.03;1.00;;;11.40;99.90;;;11.27;98.34;99526.47;5076126;28;20076;-84
2023/12/25 06:54:41;;;;;;;2.25;0.90;;;11.40;99.90;;;11.21;97.61;99533.56;5076231;28;20048;-84
2023/12/25 06:57:08;;;;;;;2.83;0.95;;;11.50;99.90;;;11.25;97.95;99531.25;5059272;28;20403;-84
2023/12/25 06:59:36;;;;;;;3.72;0.80;;;11.50;99.90;;;11.22;97.67;99524.50;5075718;28;20044;-84
2023/12/25 07:02:03;;;;;;;4.10;0.68;;;11.50;99.90;;;11.23;97.77;99538.69;5059067;28;20139;-84
2023/12/25 07:04:34;;;;;;;4.18;0.80;;;11.50;99.90;;;11.21;98.06;99524.75;5076035;28;20048;-84
2023/12/25 07:07:01;;;;;;;2.47;0.85;;;11.40;99.90;;;11.19;97.75;99537.53;5077251;28;20043;-84
2023/12/25 07:09:29;;;;;;;2.78;0.80;;;11.50;99.90;;;11.20;98.06;99536.47;5076462;28;20044;-84
2023/12/25 07:11:57;;;;;;;2.45;0.80;;;11.50;99.90;;;11.22;98.06;99529.84;5077158;28;20068;-84
2023/12/25 07:14:25;;;;;;;2.35;0.95;;;11.50;99.90;;;11.26;97.93;99536.31;5077126;28;20487;-84
2023/12/25 07:16:52;;;;;;;3.22;0.70;;;11.50;99.90;;;11.25;97.44;99549.94;5077140;28;20033;-84
2023/12/25 07:19:20;;;;;;;4.75;0.80;;;11.50;99.90;;;11.29;97.50;99541.19;5075204;28;20047;-84
2023/12/25 07:21:48;;;;;;;2.35;0.80;;;11.50;99.90;;;11.28;97.70;99558.28;5058418;28;20059;-84
2023/12/25 07:24:16;;;;;;;2.03;0.60;;;11.50;99.90;;;11.29;97.75;99564.41;5076352;28;20044;-84
2023/12/25 07:26:44;;;;;;;1.60;0.70;;;11.50;99.90;;;11.26;97.85;99563.03;5076369;28;20110;-84
2023/12/25 07:29:11;;;;;;;1.77;0.80;;;11.50;99.90;;;11.26;98.04;99567.56;5041465;28;20056;-84
2023/12/25 07:31:41;;;;;;;1.60;0.60;;;11.50;99.90;;;11.24;98.24;99551.78;5075814;28;20036;-84
2023/12/25 07:34:09;;;;;;;2.53;0.88;;;11.50;99.90;;;11.26;98.30;99563.03;5059358;28;20067;-84
2023/12/25 07:36:36;;;;;;;2.58;0.90;;;11.50;99.90;;;11.29;98.62;99583.91;5058655;28;20048;-84
2023/12/25 07:39:06;;;;;;;5.03;1.10;;;11.50;99.90;;;11.26;98.37;99557.69;5078131;28;20087;-85
2023/12/25 07:41:35;;;;;;;3.30;0.80;;;11.50;99.90;;;11.25;98.11;99556.06;5077033;28;20472;-85
2023/12/25 07:44:02;;;;;;;2.70;0.90;;;11.50;99.90;;;11.28;98.48;99574.28;5077911;28;20065;-84
2023/12/25 07:46:30;;;;;;;2.72;0.90;;;11.50;99.90;;;11.29;98.28;99562.56;5093899;28;20128;-85
2023/12/25 07:48:58;;;;;;;4.00;0.98;;;11.50;99.90;;;11.25;98.10;99572.09;5078119;28;20140;-85
2023/12/25 07:51:26;;;;;;;2.08;0.88;;;11.50;99.90;;;11.26;97.85;99573.69;5078527;28;20040;-85
2023/12/25 07:53:54;;;;;;;1.60;0.70;;;11.50;99.90;;;11.27;98.17;99575.34;5077557;28;20074;-84
2023/12/25 07:56:23;;;;;;;2.10;0.80;;;11.60;99.90;;;11.33;97.89;99590.41;5077098;28;20045;-84
2023/12/25 07:58:51;;;;;;;4.18;0.70;;;11.60;99.90;;;11.32;97.47;99591.47;5077841;28;20500;-85
2023/12/25 08:01:22;;;;;;;1.67;0.80;;;11.60;99.90;;;11.32;97.46;99599.47;5077996;28;20476;-84
2023/12/25 08:03:50;;;;;;;3.92;0.80;;;11.60;99.90;;;11.38;97.53;99595.03;5077771;28;20041;-85
2023/12/25 08:06:22;;;;;;;5.00;0.80;;;11.60;99.90;;;11.38;97.42;99597.69;5077264;28;20048;-84
2023/12/25 08:08:51;;;;;;;3.35;0.77;;;11.60;99.90;;;11.40;97.29;99600.94;5060460;28;20477;-86
2023/12/25 08:11:19;;;;;;;4.15;1.10;;;11.60;99.90;;;11.40;97.29;99605.47;5077040;28;20040;-85
2023/12/25 08:13:48;;;;;;;3.33;0.80;;;11.60;99.90;;;11.39;97.48;99601.97;5076062;28;20033;-84
2023/12/25 08:16:15;;;;;;;2.65;0.85;;;11.60;99.90;;;11.40;97.35;99600.13;5076448;28;20392;-85
2023/12/25 08:18:43;;;;;;;1.88;0.90;;;11.60;99.90;;;11.41;97.15;99601.75;5078105;28;20086;-84
2023/12/25 08:21:11;;;;;;;2.58;0.80;;;11.60;99.90;;;11.37;97.15;99590.75;5076978;28;20054;-84
2023/12/25 08:23:41;;;;;;;2.20;0.80;;;11.60;99.90;;;11.39;97.38;99612.66;5060439;28;20056;-84
2023/12/25 08:26:09;;;;;;;3.33;0.80;;;11.60;99.90;;;11.41;97.47;99607.06;5061322;28;20591;-83
2023/12/25 08:28:40;;;;;;;2.63;1.00;;;11.60;99.90;;;11.42;97.51;99612.19;5075102;28;20037;-85
2023/12/25 08:31:12;;;;;;;3.33;1.20;;;11.60;99.90;;;11.43;97.00;99613.00;5075448;28;20044;-84
2023/12/25 08:33:40;;;;;;;2.50;1.10;;;11.60;99.90;;;11.43;97.06;99607.66;5075793;28;20052;-84
2023/12/25 08:36:08;;;;;;;3.10;1.10;;;11.60;99.90;;;11.43;97.23;99621.00;5076284;28;20072;-85
2023/12/25 08:38:35;;;;;;;2.15;0.95;;;11.60;99.90;;;11.48;97.50;99629.13;5074239;28;20102;-83
2023/12/25 08:41:04;;;;;;;2.88;1.27;;;11.60;99.90;;;11.47;97.04;99644.34;5076165;28;20510;-83
2023/12/25 08:43:32;;;;;;;3.03;1.17;;;11.60;99.90;;;11.46;97.22;99647.22;5075612;28;20045;-85
2023/12/25 08:46:00;;;;;;;3.20;1.48;;;11.60;99.90;;;11.44;97.03;99649.34;5058684;28;20056;-84
2023/12/25 08:48:29;;;;;;;3.35;1.60;;;11.60;99.90;;;11.49;97.49;99673.47;5075574;28;20048;-85
2023/12/25 08:50:56;;;;;;;4.28;1.90;;;11.70;99.90;;;11.51;97.34;99676.69;5042030;28;20098;-84
2023/12/25 08:53:24;;;;;;;3.40;1.85;;;11.70;99.90;;;11.46;98.09;99679.25;5074231;28;20415;-86
2023/12/25 08:55:52;;;;;;;6.00;2.20;;;11.70;99.90;;;11.52;98.29;99683.69;5057380;28;20131;-84
2023/12/25 08:58:20;;;;;;;4.55;2.45;;;11.70;99.90;;;11.58;98.37;99693.41;5074036;28;20044;-86
2023/12/25 09:00:47;;;;;;;5.68;3.45;;;11.70;99.90;;;11.59;98.10;99703.03;5079377;28;20052;-85
2023/12/25 09:03:15;;;;;;;9.05;5.28;;;11.70;99.90;;;11.56;97.39;99701.63;5080631;28;20465;-86
2023/12/25 09:05:44;;;;;;;11.13;6.43;;;11.60;99.90;;;11.60;97.00;99707.31;5076963;28;20048;-85
2023/12/25 09:08:12;;;;;;;12.93;6.95;;;11.60;99.90;;;11.63;96.34;99706.88;5073603;28;20037;-85
2023/12/25 09:10:39;;;;;;;14.85;7.65;;;11.60;99.90;;;11.61;95.58;99706.28;5073269;28;20060;-86
2023/12/25 09:13:07;;;;;;;13.93;7.20;;;11.60;99.90;;;11.60;95.59;99701.97;5075061;28;20041;-84
2023/12/25 09:15:35;;;;;;;10.57;6.45;;;11.60;99.90;;;11.59;95.15;99711.06;5040418;28;20094;-83
2023/12/25 09:18:03;;;;;;;7.88;3.83;;;11.60;99.90;;;11.56;94.34;99714.19;5072506;28;20063;-83
2023/12/25 09:20:31;;;;;;;6.03;2.90;;;11.60;99.90;;;11.56;94.44;99708.84;5072993;28;20033;-85
2023/12/25 09:23:00;;;;;;;5.80;2.88;;;11.50;99.90;;;11.55;94.02;99707.22;5056188;28;20116;-83
2023/12/25 09:25:28;;;;;;;5.57;2.92;;;11.50;99.90;;;11.47;94.15;99728.97;5053292;28;20069;-84
2023/12/25 09:27:56;;;;;;;5.88;3.17;;;11.50;99.90;;;11.44;94.07;99716.88;5054638;28;20084;-83
2023/12/25 09:30:24;;;;;;;6.65;3.30;;;11.50;99.90;;;11.49;94.32;99719.66;5061684;28;20041;-83
2023/12/25 09:32:51;;;;;;;6.55;3.78;;;11.50;99.90;;;11.49;94.21;99732.22;5056802;28;20048;-83
2023/12/25 09:35:19;;;;;;;7.55;4.30;;;11.40;99.90;;;11.49;94.12;99729.53;5072636;28;20040;-85
2023/12/25 09:37:46;;;;;;;8.15;4.70;;;11.40;99.90;;;11.51;94.37;99738.13;5074014;28;20499;-84
2023/12/25 09:40:15;;;;;;;7.45;4.47;;;11.50;99.90;;;11.52;93.86;99740.56;5073386;28;20041;-84
2023/12/25 09:42:45;;;;;;;9.38;4.70;;;11.40;99.90;;;11.52;93.02;99739.75;5072947;28;20090;-84
2023/12/25 09:45:14;;;;;;;7.18;4.90;;;11.40;99.90;;;11.50;93.12;99741.84;5074233;28;20076;-84
2023/12/25 09:47:43;;;;;;;7.45;4.80;;;11.40;99.90;;;11.50;92.95;99739.16;5072210;28;20090;-84
2023/12/25 09:50:11;;;;;;;7.50;3.97;;;11.40;99.90;;;11.49;92.66;99738.34;5072753;28;20052;-84
2023/12/25 09:52:39;;;;;;;5.93;2.90;;;11.40;99.90;;;11.48;92.55;99742.09;5073711;28;20080;-84
2023/12/25 09:55:08;;;;;;;5.88;2.33;;;11.40;99.90;;;11.47;92.13;99751.16;5071450;28;20045;-84
2023/12/25 09:57:39;;;;;;;4.10;2.63;;;11.40;99.90;;;11.48;92.19;99757.28;5052996;28;20040;-83
2023/12/25 10:00:10;;;;;;;4.82;2.90;;;11.30;99.90;;;11.49;92.29;99750.91;5072425;28;20094;-83
2023/12/25 10:02:45;;;;;;;4.73;2.30;;;11.40;99.90;;;11.51;91.97;99770.16;5088786;28;20048;-83
2023/12/25 10:05:13;;;;;;;5.15;2.38;;;11.40;99.90;;;11.46;91.74;99762.03;5074948;28;20036;-83
2023/12/25 10:07:42;;;;;;;4.55;2.35;;;11.40;99.90;;;11.40;91.81;99771.00;5073910;28;20496;-83
2023/12/25 10:10:10;;;;;;;4.53;2.58;;;11.30;99.90;;;11.37;92.18;99756.28;5073931;28;20094;-84
2023/12/25 10:12:44;;;;;;;5.47;2.90;;;11.30;99.90;;;11.41;92.19;99761.94;5072275;28;20059;-83
2023/12/25 10:15:13;;;;;;;6.43;3.20;;;11.30;99.90;;;11.43;92.17;99755.31;5073566;28;20079;-84
2023/12/25 10:17:42;;;;;;;6.72;3.30;;;11.40;99.90;;;11.46;92.11;99754.84;5075311;28;20048;-83
2023/12/25 10:20:19;;;;;;;5.50;3.30;;;11.40;99.90;;;11.50;92.23;99747.19;5077531;28;20056;-84